ADDS METAR Data INFO
IDs: Format: Raw Decoded Include TAF

Data at: 1237 UTC 25 Jul 2017

KCLL 251153Z AUTO 15003KT 9SM CLR 25/23 A3007 RMK AO2 SLP178 T02500233 10278 20250 53015
KCLL 251053Z AUTO 19004KT 10SM CLR 26/24 A3006 RMK AO2 SLP172 T02610239
KCLL 250953Z AUTO 17008KT 10SM CLR 27/24 A3004 RMK AO2 SLP168 T02670239
KCLL 250853Z AUTO 17010KT 10SM CLR 27/24 A3003 RMK AO2 SLP164 T02670239 51003
KCLL 250753Z AUTO 17010KT 10SM CLR 27/24 A3003 RMK AO2 SLP163 T02720239
KCLL 250653Z AUTO 18009KT 10SM CLR 27/23 A3003 RMK AO2 SLP162 T02720233
KCLL 250553Z AUTO 17009KT 10SM CLR 28/23 A3002 RMK AO2 SLP160 T02780233 10317 20278 403670267 51018
KCLL 250453Z AUTO 17011KT 10SM CLR 28/22 A3001 RMK AO2 SLP158 T02830222
KCLL 250353Z AUTO 17010G18KT 10SM CLR 29/21 A2999 RMK AO2 SLP150 T02940211
KCLL 250253Z AUTO 17012KT 10SM CLR 31/20 A2997 RMK AO2 SLP142 T03060200 53013
KCLL 250153Z AUTO 16006KT 10SM CLR 32/21 A2995 RMK AO2 SLP136 T03170206
KCLL 250053Z 02005KT 10SM CLR 31/23 A2993 RMK AO2 SLP131 T03110228
KCLL 242353Z 36010KT 10SM SCT085 31/24 A2993 RMK AO2 WSHFT 2328 SLP130 T03110239 10367 20311 56001
KCLL 242348Z 02012KT 10SM SCT085 31/23 A2993 RMK AO2 WSHFT 2328
KCLL 242253Z 21006KT 10SM CLR 36/17 A2992 RMK AO2 SLP127 T03560172
KCLL 242153Z AUTO 14008KT 10SM CLR 36/18 A2993 RMK AO2 SLP130 T03610183
KCLL 242053Z 19008KT 10SM CLR 36/18 A2993 RMK AO2 LTG DSNT NW SLP128 T03560183 58019
KCLL 241953Z 19011KT 10SM CLR 35/19 A2995 RMK AO2 LTG DSNT N AND NW SLP137 T03500189
KCLL 241853Z 21009KT 10SM CLR 34/20 A2997 RMK AO2 SLP144 T03390200
KCLL 241753Z 19012G16KT 10SM CLR 34/20 A2998 RMK AO2 SLP147 T03390200 10339 20267 58008
KCLL 241653Z 20009KT 10SM CLR 32/22 A3000 RMK AO2 SLP153 T03220222
KCLL 241553Z 20009KT 10SM SCT032 31/23 A3001 RMK AO2 SLP156 T03060228
KCLL 241453Z 24010KT 10SM SCT018 30/23 A3001 RMK AO2 SLP155 T03000233 51014
KCLL 241353Z 21008KT 9SM SCT018 28/24 A3000 RMK AO2 SLP152 T02780244
KCLL 241329Z 23008KT 9SM FEW018 SCT026 27/24 A2999 RMK AO2 T02720244
KCLL 241253Z 23005KT 8SM BKN019 BKN024 27/24 A2998 RMK AO2 SLP147 T02720244
KCLL 241153Z AUTO 23005KT 10SM OVC018 27/24 A2996 RMK AO2 SLP141 T02720244 10278 20267 53012
KCLL 241053Z AUTO 25006KT 10SM OVC018 27/24 A2994 RMK AO2 SLP134 T02720244
KCLL 240953Z AUTO 22006KT 10SM OVC017 27/24 A2993 RMK AO2 SLP130 T02720244
KCLL 240929Z AUTO 22004KT 10SM BKN018 27/24 A2993 RMK AO2 T02720244
KCLL 240853Z AUTO 19007KT 10SM FEW110 27/24 A2993 RMK AO2 SLP129 T02720244 56002
KCLL 240753Z AUTO 19007KT 10SM CLR 28/24 A2993 RMK AO2 SLP130 T02780239
KCLL 240653Z AUTO 19007KT 10SM CLR 28/24 A2993 RMK AO2 SLP129 T02780239
KCLL 240553Z AUTO 17005KT 10SM CLR 28/23 A2994 RMK AO2 SLP131 T02780233 10350 20278 403780256 51014
KCLL 240453Z AUTO 20007KT 10SM CLR 29/23 A2993 RMK AO2 SLP128 T02890233
KCLL 240353Z AUTO 18011KT 10SM CLR 30/23 A2991 RMK AO2 SLP122 T03000228
KCLL 240253Z AUTO 17009KT 10SM CLR 31/23 A2989 RMK AO2 SLP117 T03110228 53018
KCLL 240153Z AUTO 17011KT 10SM CLR 33/22 A2987 RMK AO2 SLP109 T03280217
KCLL 240053Z 16012KT 10SM CLR 34/21 A2985 RMK AO2 LTG DSNT SW SLP102 T03440211